createdAt,value
2017-12-13T00:00:03.018Z,5.73
2017-12-13T00:02:29.979Z,5.90
2017-12-13T00:04:57.223Z,6.23
2017-12-13T00:07:24.282Z,7.70
2017-12-13T00:09:51.334Z,5.53
2017-12-13T00:12:19.722Z,7.97
2017-12-13T00:14:46.873Z,7.83
2017-12-13T00:17:14.127Z,7.60
2017-12-13T00:19:41.176Z,8.27
2017-12-13T00:22:09.660Z,8.53
2017-12-13T00:24:36.917Z,6.53
2017-12-13T00:27:03.871Z,5.00
2017-12-13T00:29:31.128Z,6.20
2017-12-13T00:31:58.482Z,9.77
2017-12-13T00:34:25.535Z,9.93
2017-12-13T00:36:52.590Z,8.20
2017-12-13T00:39:19.647Z,9.73
2017-12-13T00:41:46.695Z,10.13
2017-12-13T00:44:14.259Z,7.60
2017-12-13T00:46:41.317Z,5.83
2017-12-13T00:49:08.380Z,9.00
2017-12-13T00:51:35.418Z,10.60
2017-12-13T00:54:02.474Z,12.03
2017-12-13T00:56:29.623Z,9.27
2017-12-13T00:58:56.680Z,8.47
2017-12-13T01:01:23.755Z,9.93
2017-12-13T01:03:50.786Z,9.33
2017-12-13T01:06:17.791Z,5.80
2017-12-13T01:08:44.999Z,7.77
2017-12-13T01:11:11.945Z,7.47
2017-12-13T01:13:38.922Z,4.67
2017-12-13T01:16:06.242Z,5.77
2017-12-13T01:18:33.313Z,6.03
2017-12-13T01:21:00.567Z,5.97
2017-12-13T01:23:27.615Z,7.03
2017-12-13T01:25:54.879Z,5.67
2017-12-13T01:28:21.927Z,8.70
2017-12-13T01:30:48.984Z,10.50
2017-12-13T01:33:16.237Z,9.70
2017-12-13T01:35:55.983Z,6.40
2017-12-13T01:38:23.343Z,5.53
2017-12-13T01:40:51.515Z,5.33
2017-12-13T01:43:18.676Z,4.83
2017-12-13T01:45:45.727Z,4.97
2017-12-13T01:48:12.775Z,6.57
2017-12-13T01:50:39.834Z,7.83
2017-12-13T01:53:06.887Z,9.83
2017-12-13T01:55:34.034Z,11.40
2017-12-13T01:58:00.986Z,9.50
2017-12-13T02:00:28.351Z,5.20
2017-12-13T02:02:56.318Z,6.43
2017-12-13T02:05:23.688Z,5.90
2017-12-13T02:07:50.735Z,8.70
2017-12-13T02:10:17.682Z,6.10
2017-12-13T02:12:44.739Z,6.60
2017-12-13T02:15:11.728Z,6.40
2017-12-13T02:17:39.565Z,4.90
2017-12-13T02:20:06.615Z,5.00
2017-12-13T02:22:33.770Z,7.83
2017-12-13T02:25:01.956Z,5.30
2017-12-13T02:27:29.009Z,5.00
2017-12-13T02:29:56.055Z,6.40
2017-12-13T02:32:23.207Z,6.17
2017-12-13T02:34:50.255Z,8.80
2017-12-13T02:37:17.415Z,9.73
2017-12-13T02:39:44.678Z,5.30
2017-12-13T02:42:11.833Z,9.80
2017-12-13T02:44:38.913Z,5.83
2017-12-13T02:47:06.863Z,8.70
2017-12-13T02:49:34.115Z,10.53
2017-12-13T02:52:01.400Z,10.20
2017-12-13T02:54:29.240Z,13.03
2017-12-13T02:56:56.649Z,4.03
2017-12-13T02:59:24.783Z,4.43
2017-12-13T03:01:51.727Z,6.30
2017-12-13T03:04:18.888Z,6.27
2017-12-13T03:06:45.935Z,7.70
2017-12-13T03:09:13.195Z,11.30
2017-12-13T03:11:40.144Z,9.27
2017-12-13T03:14:07.715Z,8.20
2017-12-13T03:16:35.895Z,7.17
2017-12-13T03:19:03.043Z,7.60
2017-12-13T03:21:30.055Z,7.37
2017-12-13T03:23:57.161Z,4.70
2017-12-13T03:26:24.107Z,5.30
2017-12-13T03:28:52.121Z,5.97
2017-12-13T03:31:19.930Z,6.13
2017-12-13T03:33:47.162Z,4.80
2017-12-13T03:36:14.307Z,9.03
2017-12-13T03:38:41.413Z,9.03
2017-12-13T03:41:08.559Z,5.90
2017-12-13T03:43:35.815Z,9.57
2017-12-13T03:46:03.075Z,7.57
2017-12-13T03:48:30.103Z,5.40
2017-12-13T03:50:57.999Z,4.23
2017-12-13T03:53:25.159Z,4.10
2017-12-13T03:55:52.415Z,6.23
2017-12-13T03:58:19.479Z,5.70
2017-12-13T04:00:46.527Z,7.07
2017-12-13T04:03:13.471Z,5.53
2017-12-13T04:05:40.528Z,9.50
2017-12-13T04:08:07.679Z,9.20
2017-12-13T04:10:35.555Z,12.80
2017-12-13T04:13:03.319Z,7.00
2017-12-13T04:15:30.375Z,7.50
2017-12-13T04:17:57.423Z,8.03
2017-12-13T04:20:24.480Z,7.87
2017-12-13T04:22:51.405Z,8.27
2017-12-13T04:25:18.888Z,10.13
2017-12-13T04:27:46.048Z,9.53
2017-12-13T04:30:13.310Z,5.10
2017-12-13T04:32:40.304Z,4.57
2017-12-13T04:35:09.555Z,8.93
2017-12-13T04:37:37.015Z,7.40
2017-12-13T04:40:04.175Z,7.10
2017-12-13T04:42:31.232Z,6.97
2017-12-13T04:44:58.280Z,5.70
2017-12-13T04:47:25.448Z,7.53
2017-12-13T04:49:52.921Z,5.60
2017-12-13T04:52:19.951Z,4.63
2017-12-13T04:54:47.103Z,5.17
2017-12-13T04:57:14.363Z,8.47
2017-12-13T04:59:41.519Z,6.47
2017-12-13T05:02:08.567Z,5.17
2017-12-13T05:04:36.895Z,7.57
2017-12-13T05:07:04.620Z,7.30
2017-12-13T05:09:32.490Z,7.10
2017-12-13T05:11:59.751Z,6.53
2017-12-13T05:14:26.803Z,6.60
2017-12-13T05:16:53.954Z,11.90
2017-12-13T05:19:21.118Z,9.27
2017-12-13T05:21:47.985Z,9.10
2017-12-13T05:24:15.120Z,7.07
2017-12-13T05:26:42.248Z,5.80
2017-12-13T05:29:09.527Z,6.70
2017-12-13T05:31:36.894Z,8.33
2017-12-13T05:34:03.944Z,7.03
2017-12-13T05:36:30.995Z,9.00
2017-12-13T05:38:58.056Z,11.03
2017-12-13T05:41:25.098Z,10.20
2017-12-13T05:43:52.147Z,10.47
2017-12-13T05:46:19.032Z,9.80
2017-12-13T05:48:46.702Z,10.20
2017-12-13T05:51:14.648Z,12.90
2017-12-13T05:53:42.104Z,10.97
2017-12-13T05:56:09.629Z,11.57
2017-12-13T05:58:36.915Z,10.30
2017-12-13T06:01:04.351Z,10.00
2017-12-13T06:03:31.434Z,8.67
2017-12-13T06:05:58.799Z,6.23
2017-12-13T06:08:25.851Z,5.67
2017-12-13T06:10:53.008Z,5.00
2017-12-13T06:13:20.367Z,5.30
2017-12-13T06:15:47.936Z,5.20
2017-12-13T06:18:15.095Z,7.50
2017-12-13T06:20:42.141Z,9.20
2017-12-13T06:23:09.195Z,8.20
2017-12-13T06:25:37.274Z,7.97
2017-12-13T06:28:04.425Z,7.60
2017-12-13T06:30:31.471Z,8.97
2017-12-13T06:32:59.079Z,9.20
2017-12-13T06:35:26.770Z,8.80
2017-12-13T06:37:53.755Z,5.60
2017-12-13T06:40:20.815Z,6.73
2017-12-13T06:42:47.863Z,10.00
2017-12-13T06:45:15.067Z,6.03
2017-12-13T06:47:43.712Z,6.23
2017-12-13T06:50:10.993Z,5.60
2017-12-13T06:52:38.128Z,4.90
2017-12-13T06:55:05.994Z,3.97
2017-12-13T06:57:33.255Z,5.20
2017-12-13T07:00:01.632Z,7.73
2017-12-13T07:02:28.588Z,7.77
2017-12-13T07:04:55.642Z,6.37
2017-12-13T07:07:22.890Z,5.00
2017-12-13T07:09:49.953Z,5.30
2017-12-13T07:12:17.000Z,4.53
2017-12-13T07:14:44.135Z,5.80
2017-12-13T07:17:11.819Z,9.17
2017-12-13T07:19:38.976Z,11.50
2017-12-13T07:22:06.143Z,9.10
2017-12-13T07:24:33.154Z,9.07
2017-12-13T07:27:00.235Z,9.13
2017-12-13T07:29:28.007Z,8.00
2017-12-13T07:31:55.040Z,7.87
2017-12-13T07:34:22.120Z,7.47
2017-12-13T07:36:49.163Z,14.73
2017-12-13T07:39:16.219Z,7.73
2017-12-13T07:41:43.137Z,7.10
2017-12-13T07:44:10.226Z,9.70
2017-12-13T07:46:37.304Z,6.93
2017-12-13T07:49:05.046Z,9.20
2017-12-13T07:51:32.000Z,7.80
2017-12-13T07:53:59.124Z,6.53
2017-12-13T07:56:26.521Z,4.50
2017-12-13T07:58:53.608Z,6.50
2017-12-13T08:01:20.527Z,6.13
2017-12-13T08:03:47.971Z,5.03
2017-12-13T08:06:15.133Z,4.23
2017-12-13T08:08:42.278Z,4.03
2017-12-13T08:11:09.445Z,4.03
2017-12-13T08:13:36.495Z,4.40
2017-12-13T08:16:03.441Z,3.90
2017-12-13T08:18:30.505Z,4.30
2017-12-13T08:20:57.544Z,4.17
2017-12-13T08:23:24.811Z,5.80
2017-12-13T08:25:51.859Z,5.27
2017-12-13T08:28:19.120Z,4.70
2017-12-13T08:30:46.847Z,3.83
2017-12-13T08:33:14.048Z,4.20
2017-12-13T08:35:41.095Z,3.50
2017-12-13T08:38:08.249Z,2.97
2017-12-13T08:40:35.192Z,3.90
2017-12-13T08:43:03.175Z,5.43
2017-12-13T08:45:30.335Z,3.97
2017-12-13T08:47:57.386Z,3.83
2017-12-13T08:50:24.529Z,3.00
2017-12-13T08:52:51.645Z,2.40
2017-12-13T08:55:18.743Z,3.80
2017-12-13T08:57:45.921Z,4.00
2017-12-13T09:00:13.381Z,4.57
2017-12-13T09:02:40.367Z,4.33
2017-12-13T09:05:07.467Z,3.83
2017-12-13T09:07:34.830Z,3.53
2017-12-13T09:10:01.818Z,3.17
2017-12-13T09:12:29.575Z,3.73
2017-12-13T09:14:57.287Z,3.70
2017-12-13T09:17:24.595Z,3.03
2017-12-13T09:19:52.451Z,3.30
2017-12-13T09:22:19.618Z,2.70
2017-12-13T09:24:46.651Z,3.03
2017-12-13T09:27:13.903Z,2.43
2017-12-13T09:29:40.963Z,2.13
2017-12-13T09:32:08.328Z,2.43
2017-12-13T09:34:35.788Z,2.70
2017-12-13T09:37:03.039Z,3.40
2017-12-13T09:39:30.096Z,3.10
2017-12-13T09:41:57.391Z,3.40
2017-12-13T09:44:25.123Z,3.83
2017-12-13T09:46:52.371Z,2.87
2017-12-13T09:49:19.427Z,3.30
2017-12-13T09:51:46.682Z,2.97
2017-12-13T09:54:13.744Z,3.63
2017-12-13T09:56:40.895Z,4.43
2017-12-13T09:59:08.008Z,4.10
2017-12-13T10:01:35.107Z,3.30
2017-12-13T10:04:02.976Z,3.23
2017-12-13T10:06:29.978Z,3.37
2017-12-13T10:08:57.081Z,3.57
2017-12-13T10:11:24.141Z,3.03
2017-12-13T10:13:51.238Z,2.70
2017-12-13T10:16:18.239Z,3.43
2017-12-13T10:18:45.295Z,3.20
2017-12-13T10:21:12.417Z,3.87
2017-12-13T10:23:39.500Z,3.30
2017-12-13T10:26:06.671Z,4.00
2017-12-13T10:28:33.719Z,3.40
2017-12-13T10:31:01.455Z,3.60
2017-12-13T10:33:28.635Z,3.73
2017-12-13T10:35:55.787Z,3.40
2017-12-13T10:38:22.963Z,3.70
2017-12-13T10:40:50.128Z,3.83
2017-12-13T10:43:17.209Z,3.40
2017-12-13T10:45:44.175Z,3.30
2017-12-13T10:48:11.499Z,2.93
2017-12-13T10:50:39.337Z,2.90
2017-12-13T10:53:08.032Z,3.00
2017-12-13T10:55:35.892Z,2.97
2017-12-13T10:58:03.256Z,2.80
2017-12-13T11:00:30.256Z,2.53
2017-12-13T11:02:57.255Z,2.63
2017-12-13T11:05:24.411Z,2.07
2017-12-13T11:07:52.115Z,2.07
2017-12-13T11:10:20.078Z,2.43
2017-12-13T11:12:47.147Z,2.23
2017-12-13T11:15:15.387Z,1.90
2017-12-13T11:17:42.447Z,2.00
2017-12-13T11:20:09.490Z,1.97
2017-12-13T11:22:36.619Z,2.23
2017-12-13T11:25:03.696Z,2.60
2017-12-13T11:27:30.855Z,1.97
2017-12-13T11:29:58.948Z,2.17
2017-12-13T11:32:26.195Z,1.87
2017-12-13T11:34:53.203Z,2.40
2017-12-13T11:37:20.395Z,2.10
2017-12-13T11:39:47.552Z,2.00
2017-12-13T11:42:14.596Z,1.70
2017-12-13T11:44:41.760Z,1.67
2017-12-13T11:47:09.016Z,2.23
2017-12-13T11:49:36.188Z,1.90
2017-12-13T11:52:04.159Z,1.83
2017-12-13T11:54:37.926Z,1.63
2017-12-13T11:57:04.866Z,1.67
2017-12-13T11:59:32.080Z,1.77
2017-12-13T12:01:59.066Z,2.00
2017-12-13T12:04:26.474Z,1.70
2017-12-13T12:06:53.729Z,1.63
2017-12-13T12:09:20.883Z,1.63
2017-12-13T12:11:47.945Z,1.37
2017-12-13T12:14:14.994Z,2.00
2017-12-13T12:16:42.022Z,1.70
2017-12-13T12:19:09.092Z,1.40
2017-12-13T12:21:36.451Z,1.70
2017-12-13T12:24:03.507Z,1.57
2017-12-13T12:26:30.558Z,1.60
2017-12-13T12:28:57.817Z,1.30
2017-12-13T12:31:25.004Z,1.47
2017-12-13T12:33:52.839Z,1.50
2017-12-13T12:36:19.966Z,1.33
2017-12-13T12:38:47.153Z,1.60
2017-12-13T12:41:14.512Z,1.30
2017-12-13T12:43:41.545Z,1.40
2017-12-13T12:46:08.741Z,1.20
2017-12-13T12:48:36.080Z,1.03
2017-12-13T12:51:03.154Z,1.10
2017-12-13T12:53:30.288Z,2.07
2017-12-13T12:55:57.372Z,1.20
2017-12-13T12:58:26.443Z,1.30
2017-12-13T13:00:54.416Z,1.20
2017-12-13T13:03:21.694Z,1.00
2017-12-13T13:05:48.956Z,0.97
2017-12-13T13:08:17.520Z,1.40
2017-12-13T13:10:44.569Z,0.90
2017-12-13T13:13:11.734Z,1.10
2017-12-13T13:15:40.208Z,1.10
2017-12-13T13:18:07.375Z,1.30
2017-12-13T13:20:35.235Z,1.10
2017-12-13T13:23:02.452Z,1.40
2017-12-13T13:25:29.544Z,1.20
2017-12-13T13:27:57.010Z,1.00
2017-12-13T13:30:24.475Z,1.07
2017-12-13T13:32:51.523Z,1.00
2017-12-13T13:35:18.681Z,1.13
2017-12-13T13:37:46.293Z,1.00
2017-12-13T13:40:14.115Z,1.30
2017-12-13T13:42:42.105Z,1.20
2017-12-13T13:45:09.138Z,1.10
2017-12-13T13:47:36.198Z,1.13
2017-12-13T13:50:03.454Z,1.37
2017-12-13T13:52:30.504Z,1.20
2017-12-13T13:54:58.375Z,1.30
2017-12-13T13:57:25.523Z,1.47
2017-12-13T13:59:52.696Z,1.50
2017-12-13T14:02:19.843Z,1.67
2017-12-13T14:04:47.817Z,1.23
2017-12-13T14:07:14.873Z,1.07
2017-12-13T14:09:42.150Z,1.27
2017-12-13T14:12:09.280Z,2.83
2017-12-13T14:14:36.547Z,1.20
2017-12-13T14:17:03.691Z,1.20
2017-12-13T14:19:30.750Z,1.60
2017-12-13T14:21:57.871Z,1.10
2017-12-13T14:24:24.956Z,1.10
2017-12-13T14:26:52.719Z,1.27
2017-12-13T14:29:19.776Z,1.40
2017-12-13T14:31:47.027Z,1.10
2017-12-13T14:34:14.497Z,1.17
2017-12-13T14:36:41.648Z,1.20
2017-12-13T14:39:08.743Z,1.30
2017-12-13T14:41:36.572Z,1.50
2017-12-13T14:44:03.832Z,1.80
2017-12-13T14:46:32.007Z,1.50
2017-12-13T14:48:59.263Z,1.20
2017-12-13T14:51:26.267Z,1.57
2017-12-13T14:53:53.263Z,1.20
2017-12-13T14:56:21.350Z,1.60
2017-12-13T14:58:48.403Z,1.10
2017-12-13T15:01:15.450Z,0.90
2017-12-13T15:03:42.506Z,1.20
2017-12-13T15:06:09.759Z,1.20
2017-12-13T15:08:36.815Z,2.90
2017-12-13T15:11:03.767Z,3.13
2017-12-13T15:13:30.934Z,1.93
2017-12-13T15:15:58.393Z,5.20
2017-12-13T15:18:25.456Z,5.90
2017-12-13T15:20:52.696Z,2.27
2017-12-13T15:23:19.853Z,4.30
2017-12-13T15:25:47.104Z,2.37
2017-12-13T15:28:14.179Z,3.43
2017-12-13T15:30:41.208Z,3.03
2017-12-13T15:33:08.683Z,3.30
2017-12-13T15:35:35.616Z,6.70
2017-12-13T15:38:02.718Z,5.00
2017-12-13T15:40:30.656Z,4.90
2017-12-13T15:42:57.600Z,3.90
2017-12-13T15:45:24.653Z,3.00
2017-12-13T15:47:51.675Z,1.83
2017-12-13T15:50:18.759Z,3.50
2017-12-13T15:52:45.911Z,2.77
2017-12-13T15:55:13.784Z,2.83
2017-12-13T15:57:40.939Z,2.00
2017-12-13T16:00:07.992Z,2.30
2017-12-13T16:02:35.147Z,2.60
2017-12-13T16:05:02.200Z,4.90
2017-12-13T16:07:29.355Z,3.40
2017-12-13T16:09:56.403Z,2.73
2017-12-13T16:12:23.720Z,9.37
2017-12-13T16:14:50.785Z,9.87
2017-12-13T16:17:19.000Z,6.13
2017-12-13T16:19:46.152Z,6.23
2017-12-13T16:22:13.314Z,5.10
2017-12-13T16:24:40.567Z,3.70
2017-12-13T16:27:07.616Z,4.17
2017-12-13T16:29:34.787Z,4.60
2017-12-13T16:32:01.819Z,4.87
2017-12-13T16:34:29.085Z,3.47
2017-12-13T16:36:56.136Z,2.80
2017-12-13T16:39:23.390Z,2.70
2017-12-13T16:41:50.456Z,5.33
2017-12-13T16:44:17.608Z,7.00
2017-12-13T16:46:44.658Z,6.07
2017-12-13T16:49:11.819Z,6.87
2017-12-13T16:51:38.925Z,5.20
2017-12-13T16:54:06.119Z,3.80
2017-12-13T16:56:33.281Z,2.20
2017-12-13T16:59:00.336Z,1.30
2017-12-13T17:01:42.608Z,1.27
2017-12-13T17:04:09.819Z,1.40
2017-12-13T17:06:38.081Z,1.10
2017-12-13T17:09:05.319Z,1.30
2017-12-13T17:11:32.271Z,1.80
2017-12-13T17:13:59.273Z,1.60
2017-12-13T17:16:26.483Z,1.70
2017-12-13T17:18:53.634Z,1.23
2017-12-13T17:21:20.689Z,1.50
2017-12-13T17:23:47.839Z,1.20
2017-12-13T17:26:15.103Z,1.10
2017-12-13T17:28:42.256Z,1.23
2017-12-13T17:31:09.511Z,1.03
2017-12-13T17:33:36.667Z,1.10
2017-12-13T17:36:03.820Z,1.60
2017-12-13T17:38:31.083Z,1.83
2017-12-13T17:40:58.644Z,1.60
2017-12-13T17:43:25.720Z,2.20
2017-12-13T17:45:56.028Z,1.70
2017-12-13T17:48:23.080Z,1.40
2017-12-13T17:50:50.336Z,1.33
2017-12-13T17:53:17.388Z,1.40
2017-12-13T17:55:44.538Z,1.87
2017-12-13T17:58:11.617Z,1.27
2017-12-13T18:00:39.585Z,1.20
2017-12-13T18:03:06.727Z,1.10
2017-12-13T18:05:33.779Z,1.60
2017-12-13T18:08:00.931Z,1.33
2017-12-13T18:10:28.292Z,1.23
2017-12-13T18:12:55.358Z,1.40
2017-12-13T18:15:22.397Z,1.30
2017-12-13T18:17:49.538Z,1.27
2017-12-13T18:20:16.708Z,1.63
2017-12-13T18:22:43.861Z,1.53
2017-12-13T18:25:11.023Z,1.90
2017-12-13T18:27:38.087Z,1.97
2017-12-13T18:30:05.853Z,1.60
2017-12-13T18:32:33.103Z,1.80
2017-12-13T18:35:00.269Z,2.10
2017-12-13T18:37:27.359Z,1.70
2017-12-13T18:39:55.045Z,1.70
2017-12-13T18:42:22.135Z,1.40
2017-12-13T18:44:49.189Z,1.23
2017-12-13T18:47:16.434Z,1.77
2017-12-13T18:49:44.718Z,1.53
2017-12-13T18:52:11.873Z,1.70
2017-12-13T18:54:38.922Z,2.03
2017-12-13T18:57:05.972Z,1.53
2017-12-13T18:59:33.239Z,1.70
2017-12-13T19:02:00.388Z,1.60
2017-12-13T19:04:27.440Z,1.80
2017-12-13T19:06:55.377Z,1.53
2017-12-13T19:09:22.526Z,1.50
2017-12-13T19:11:49.937Z,1.60
2017-12-13T19:14:17.033Z,2.10
2017-12-13T19:16:44.057Z,2.20
2017-12-13T19:19:11.296Z,1.70
2017-12-13T19:21:38.421Z,1.70
2017-12-13T19:24:05.509Z,1.90
2017-12-13T19:26:32.656Z,1.70
2017-12-13T19:28:59.714Z,1.57
2017-12-13T19:31:26.841Z,1.43
2017-12-13T19:33:53.914Z,1.80
2017-12-13T19:36:20.993Z,1.50
2017-12-13T19:38:48.123Z,1.70
2017-12-13T19:41:15.296Z,1.50
2017-12-13T19:43:42.357Z,1.80
2017-12-13T19:46:09.393Z,1.73
2017-12-13T19:48:36.737Z,1.60
2017-12-13T19:51:04.016Z,2.00
2017-12-13T19:53:31.263Z,1.80
2017-12-13T19:55:58.393Z,1.57
2017-12-13T19:58:25.670Z,1.73
2017-12-13T20:00:52.733Z,1.80
2017-12-13T20:03:20.119Z,1.80
2017-12-13T20:05:47.201Z,1.53
2017-12-13T20:08:14.501Z,1.30
2017-12-13T20:10:41.554Z,1.20
2017-12-13T20:13:08.685Z,1.27
2017-12-13T20:15:35.872Z,1.20
2017-12-13T20:18:02.864Z,1.60
2017-12-13T20:20:29.965Z,1.93
2017-12-13T20:22:57.336Z,1.63
2017-12-13T20:25:25.507Z,1.27
2017-12-13T20:27:52.855Z,1.43
2017-12-13T20:30:20.321Z,1.57
2017-12-13T20:32:47.377Z,1.43
2017-12-13T20:35:14.373Z,1.60
2017-12-13T20:37:42.174Z,1.80
2017-12-13T20:40:10.480Z,1.50
2017-12-13T20:42:37.636Z,1.80
2017-12-13T20:45:05.647Z,1.47
2017-12-13T20:47:34.519Z,1.27
2017-12-13T20:50:03.012Z,1.50
2017-12-13T20:52:30.152Z,1.63
2017-12-13T20:54:57.300Z,1.50
2017-12-13T20:57:24.732Z,1.47
2017-12-13T20:59:51.855Z,1.30
2017-12-13T21:02:19.579Z,1.50
2017-12-13T21:04:46.740Z,1.20
2017-12-13T21:07:13.999Z,1.37
2017-12-13T21:09:41.048Z,1.10
2017-12-13T21:12:09.024Z,2.30
2017-12-13T21:14:36.076Z,1.57
2017-12-13T21:17:04.145Z,1.40
2017-12-13T21:19:31.206Z,1.20
2017-12-13T21:21:58.871Z,1.60
2017-12-13T21:24:25.926Z,1.20
2017-12-13T21:26:54.425Z,1.30
2017-12-13T21:29:21.667Z,1.50
2017-12-13T21:31:48.820Z,1.30
2017-12-13T21:34:15.984Z,1.63
2017-12-13T21:36:43.894Z,1.40
2017-12-13T21:39:11.919Z,1.67
2017-12-13T21:41:39.076Z,1.77
2017-12-13T21:44:06.911Z,1.60
2017-12-13T21:46:34.212Z,1.60
2017-12-13T21:49:01.268Z,1.70
2017-12-13T21:51:28.471Z,1.30
2017-12-13T21:53:55.583Z,1.50
2017-12-13T21:56:22.620Z,1.27
2017-12-13T21:58:49.574Z,1.20
2017-12-13T22:01:16.776Z,1.23
2017-12-13T22:03:44.808Z,1.80
2017-12-13T22:06:11.856Z,1.50
2017-12-13T22:08:39.200Z,1.70
2017-12-13T22:11:06.476Z,1.30
2017-12-13T22:13:33.624Z,1.50
2017-12-13T22:16:01.093Z,1.40
2017-12-13T22:18:28.966Z,1.47
2017-12-13T22:20:56.012Z,1.73
2017-12-13T22:23:23.173Z,1.70
2017-12-13T22:25:50.227Z,1.40
2017-12-13T22:28:17.208Z,1.53
2017-12-13T22:30:45.357Z,1.60
2017-12-13T22:33:12.400Z,2.03
2017-12-13T22:35:40.333Z,1.50
2017-12-13T22:38:07.428Z,1.50
2017-12-13T22:40:34.408Z,1.47
2017-12-13T22:43:01.544Z,1.50
2017-12-13T22:45:28.696Z,1.73
2017-12-13T22:47:55.952Z,1.47
2017-12-13T22:50:23.109Z,1.60
2017-12-13T22:52:50.365Z,1.57
2017-12-13T22:55:17.415Z,1.40
2017-12-13T22:57:44.539Z,1.40
2017-12-13T23:00:11.522Z,1.43
2017-12-13T23:02:38.786Z,1.40
2017-12-13T23:05:05.909Z,1.50
2017-12-13T23:07:33.103Z,1.47
2017-12-13T23:10:00.247Z,1.37
2017-12-13T23:12:27.456Z,1.30
2017-12-13T23:14:54.759Z,1.20
2017-12-13T23:17:22.735Z,1.47
2017-12-13T23:19:50.299Z,1.40
2017-12-13T23:22:16.623Z,1.70
2017-12-13T23:24:42.930Z,1.50
2017-12-13T23:27:10.231Z,1.63
2017-12-13T23:29:36.585Z,1.40
2017-12-13T23:32:03.927Z,1.47
2017-12-13T23:34:31.080Z,1.40
2017-12-13T23:36:58.235Z,1.63
2017-12-13T23:39:24.592Z,1.50
2017-12-13T23:41:50.931Z,1.57
2017-12-13T23:44:17.551Z,1.47
2017-12-13T23:46:44.603Z,1.60
2017-12-13T23:49:10.949Z,1.47
2017-12-13T23:51:37.291Z,1.20
2017-12-13T23:54:04.946Z,1.60
2017-12-13T23:56:32.096Z,1.47
2017-12-13T23:58:58.411Z,1.20
